Augusta, Kansas
Current Conditions -  °F | °C
As of 2:15 AM on Thursday 18 Dec 2014 (Local Time) from KEQA Reporting Station
Light Snow Light Snow  
Wind Chill: 24°   Ceiling: 2900
Heat Index: 32°   Visibility: 3mi
Dew Point: 30°   Wind: 9mph
Humidity: 93%   Direction: 100°E
Pressure: 30.14"   Gusts: NA
Location:  37.68°N, 96.98°W
Report Text: KEQA 180815Z AUTO 10008KT 3SM -SN BKN029 OVC038 00/M01 A3014 RMK AO2
Loading
Personal Weather Stations






























Interactive Weather Map New forecast layout! Learn more

10-Day Weather Forecast

Advertisements
Track Severe Weather on mobile